createdAt,value
2023-03-17T00:02:22.404Z,100035.97
2023-03-17T00:05:27.554Z,100025.31
2023-03-17T00:08:32.862Z,100020.91
2023-03-17T00:11:34.296Z,100017.50
2023-03-17T00:14:36.150Z,100016.66
2023-03-17T00:17:37.999Z,100022.09
2023-03-17T00:20:39.589Z,100017.84
2023-03-17T00:23:41.674Z,100017.84
2023-03-17T00:26:43.495Z,100017.00
2023-03-17T00:29:44.975Z,100025.13
2023-03-17T00:32:47.393Z,100022.56
2023-03-17T00:35:49.085Z,100032.56
2023-03-17T00:38:52.480Z,100020.53
2023-03-17T00:41:54.025Z,100026.16
2023-03-17T00:44:55.515Z,100030.69
2023-03-17T00:47:57.212Z,100019.00
2023-03-17T00:50:58.705Z,100016.31
2023-03-17T00:54:03.574Z,100023.59
2023-03-17T00:57:05.164Z,100012.75
2023-03-17T01:00:22.967Z,100009.03
2023-03-17T01:03:25.422Z,99994.81
2023-03-17T01:06:26.916Z,99998.53
2023-03-17T01:09:30.647Z,100007.50
2023-03-17T01:12:33.030Z,100006.84
2023-03-17T01:15:34.780Z,100020.38
2023-03-17T01:18:36.348Z,100021.38
2023-03-17T01:21:37.873Z,100016.13
2023-03-17T01:24:40.078Z,100010.72
2023-03-17T01:27:42.346Z,100015.25
2023-03-17T01:30:46.921Z,100010.72
2023-03-17T01:33:48.436Z,99990.03
2023-03-17T01:36:50.132Z,99991.91
2023-03-17T01:39:52.556Z,99988.34
2023-03-17T01:43:02.181Z,99978.38
2023-03-17T01:46:28.063Z,99981.22
2023-03-17T01:49:37.381Z,99985.81
2023-03-17T01:52:40.414Z,99987.66
2023-03-17T01:55:45.483Z,99977.00
2023-03-17T01:58:49.796Z,99978.81
2023-03-17T02:01:59.858Z,99985.09
2023-03-17T02:05:03.522Z,99971.72
2023-03-17T02:08:13.491Z,99966.16
2023-03-17T02:11:15.264Z,99960.19
2023-03-17T02:14:16.828Z,99955.63
2023-03-17T02:17:21.070Z,99963.75
2023-03-17T02:20:22.834Z,99958.66
2023-03-17T02:23:24.678Z,99965.78
2023-03-17T02:26:28.330Z,99959.66
2023-03-17T02:29:34.027Z,99976.78
2023-03-17T02:32:36.895Z,99974.22
2023-03-17T02:35:40.685Z,99988.59
2023-03-17T02:38:43.491Z,99981.50
2023-03-17T02:41:45.036Z,99977.94
2023-03-17T02:44:46.901Z,99980.81
2023-03-17T02:47:50.160Z,99986.06
2023-03-17T02:50:51.658Z,99985.19
2023-03-17T02:53:53.260Z,99982.69
2023-03-17T02:56:54.761Z,99983.53
2023-03-17T02:59:56.513Z,99994.34
2023-03-17T03:02:58.093Z,99994.19
2023-03-17T03:06:01.572Z,100005.88
2023-03-17T03:09:04.473Z,100009.28
2023-03-17T03:12:09.792Z,99995.53
2023-03-17T03:15:11.522Z,99997.41
2023-03-17T03:18:13.370Z,99993.69
2023-03-17T03:21:15.338Z,99991.84
2023-03-17T03:24:16.897Z,99986.44
2023-03-17T03:27:18.438Z,99989.13
2023-03-17T03:30:20.373Z,99981.88
2023-03-17T03:33:21.888Z,99980.84
2023-03-17T03:36:23.600Z,99974.44
2023-03-17T03:39:25.134Z,99978.97
2023-03-17T03:42:26.630Z,99983.53
2023-03-17T03:45:28.160Z,99988.97
2023-03-17T03:48:29.842Z,99976.44
2023-03-17T03:51:31.340Z,99978.31
2023-03-17T03:54:32.809Z,99960.34
2023-03-17T03:57:34.689Z,99959.38
2023-03-17T04:00:37.164Z,99947.66
2023-03-17T04:03:38.865Z,99946.13
2023-03-17T04:06:40.399Z,99950.69
2023-03-17T04:09:42.414Z,99949.00
2023-03-17T04:12:44.498Z,99942.91
2023-03-17T04:15:46.385Z,99932.09
2023-03-17T04:18:47.985Z,99936.66
2023-03-17T04:21:49.591Z,99933.09
2023-03-17T04:24:51.352Z,99920.41
2023-03-17T04:27:52.950Z,99926.81
2023-03-17T04:30:54.474Z,99927.00
2023-03-17T04:33:56.159Z,99931.56
2023-03-17T04:36:57.675Z,99923.28
2023-03-17T04:39:59.184Z,99939.69
2023-03-17T04:43:03.386Z,99943.41
2023-03-17T04:46:09.000Z,99943.41
2023-03-17T04:49:10.554Z,99946.28
2023-03-17T04:52:12.573Z,99965.06
2023-03-17T04:55:14.090Z,99975.03
2023-03-17T04:58:30.000Z,99975.03
2023-03-17T05:01:32.446Z,99969.63
2023-03-17T05:04:34.078Z,99965.06
2023-03-17T05:07:35.994Z,99966.91
2023-03-17T05:10:37.459Z,99972.47
2023-03-17T05:13:40.861Z,99973.34
2023-03-17T05:16:42.420Z,99971.63
2023-03-17T05:19:43.927Z,99962.69
2023-03-17T05:22:45.477Z,99964.53
2023-03-17T05:25:46.934Z,99956.56
2023-03-17T05:28:48.522Z,99944.91
2023-03-17T05:31:50.061Z,99932.41
2023-03-17T05:34:51.983Z,99952.19
2023-03-17T05:37:53.624Z,99943.22
2023-03-17T05:40:55.418Z,99939.63
2023-03-17T05:43:56.938Z,99947.94
2023-03-17T05:46:59.689Z,99950.47
2023-03-17T05:50:01.772Z,99935.25
2023-03-17T05:53:03.365Z,99932.53
2023-03-17T05:56:05.102Z,99927.13
2023-03-17T05:59:06.682Z,99939.63
2023-03-17T06:02:08.987Z,99941.34
2023-03-17T06:05:10.720Z,99937.47
2023-03-17T06:08:12.951Z,99944.41
2023-03-17T06:11:14.438Z,99936.13
2023-03-17T06:14:15.915Z,99934.94
2023-03-17T06:17:18.193Z,99940.91
2023-03-17T06:20:19.919Z,99946.81
2023-03-17T06:23:23.504Z,99940.22
2023-03-17T06:26:26.112Z,99931.81
2023-03-17T06:29:28.742Z,99931.66
2023-03-17T06:32:30.636Z,99927.75
2023-03-17T06:35:33.459Z,99932.00
2023-03-17T06:38:35.217Z,99931.84
2023-03-17T06:41:36.827Z,99938.94
2023-03-17T06:44:38.271Z,99945.91
2023-03-17T06:47:39.887Z,99949.44
2023-03-17T06:50:41.466Z,99947.75
2023-03-17T06:53:42.968Z,99952.00
2023-03-17T06:56:44.967Z,99942.00
2023-03-17T06:59:46.508Z,99934.91
2023-03-17T07:02:49.335Z,99937.63
2023-03-17T07:05:51.350Z,99933.88
2023-03-17T07:08:52.812Z,99943.03
2023-03-17T07:11:54.324Z,99943.88
2023-03-17T07:14:56.790Z,99950.13
2023-03-17T07:17:58.269Z,99940.31
2023-03-17T07:21:01.807Z,99941.16
2023-03-17T07:24:04.468Z,99929.66
2023-03-17T07:27:06.112Z,99921.53
2023-03-17T07:30:08.817Z,99926.09
2023-03-17T07:33:11.282Z,99928.81
2023-03-17T07:36:13.110Z,99931.66
2023-03-17T07:39:14.604Z,99922.69
2023-03-17T07:42:17.560Z,99926.44
2023-03-17T07:45:19.065Z,99923.03
2023-03-17T07:48:21.031Z,99926.59
2023-03-17T07:51:23.258Z,99918.66
2023-03-17T07:54:26.989Z,99917.63
2023-03-17T07:57:28.661Z,99915.06
2023-03-17T08:00:30.847Z,99900.69
2023-03-17T08:03:32.621Z,99901.53
2023-03-17T08:06:34.280Z,99889.84
2023-03-17T08:09:37.224Z,99882.75
2023-03-17T08:12:39.149Z,99886.47
2023-03-17T08:15:40.982Z,99893.59
2023-03-17T08:18:42.965Z,99892.91
2023-03-17T08:21:44.487Z,99907.44
2023-03-17T08:24:46.194Z,99898.47
2023-03-17T08:27:48.958Z,99891.19
2023-03-17T08:30:50.882Z,99884.06
2023-03-17T08:33:54.408Z,99884.94
2023-03-17T08:36:56.537Z,99896.91
2023-03-17T08:39:58.953Z,99899.63
2023-03-17T08:43:00.490Z,99898.94
2023-03-17T08:46:14.999Z,99885.41
2023-03-17T08:49:16.952Z,99894.53
2023-03-17T08:52:18.428Z,99894.53
2023-03-17T08:55:20.014Z,99879.97
2023-03-17T08:58:21.575Z,99877.28
2023-03-17T09:01:24.327Z,99875.59
2023-03-17T09:04:26.564Z,99867.47
2023-03-17T09:07:28.071Z,99872.03
2023-03-17T09:10:30.381Z,99877.28
2023-03-17T09:13:33.629Z,99874.75
2023-03-17T09:16:35.784Z,99876.44
2023-03-17T09:19:37.306Z,99861.22
2023-03-17T09:22:38.830Z,99863.06
2023-03-17T09:25:43.475Z,99864.91
2023-03-17T09:28:45.017Z,99868.66
2023-03-17T09:31:47.463Z,99869.47
2023-03-17T09:34:51.420Z,99859.50
2023-03-17T09:37:53.134Z,99871.34
2023-03-17T09:41:12.096Z,99879.31
2023-03-17T09:44:26.113Z,99873.22
2023-03-17T09:47:36.783Z,99880.66
2023-03-17T09:51:08.910Z,99889.47
2023-03-17T09:54:22.826Z,99899.25
2023-03-17T09:57:32.283Z,99903.00
2023-03-17T10:00:34.598Z,99896.06
2023-03-17T10:03:37.377Z,99907.72
2023-03-17T10:06:46.551Z,99910.09
2023-03-17T10:10:05.106Z,99916.34
2023-03-17T10:13:22.773Z,99910.09
2023-03-17T10:16:54.566Z,99906.53
2023-03-17T10:20:16.306Z,99911.13
2023-03-17T10:23:21.801Z,99910.09
2023-03-17T10:26:42.484Z,99911.97
2023-03-17T10:29:44.401Z,99915.69
2023-03-17T10:32:48.130Z,99909.25
2023-03-17T10:35:49.783Z,99910.28
2023-03-17T10:38:54.126Z,99901.97
2023-03-17T10:41:58.611Z,99908.22
2023-03-17T10:45:13.577Z,99894.69
2023-03-17T10:48:19.135Z,99900.09
2023-03-17T10:51:33.423Z,99892.84
2023-03-17T10:54:36.813Z,99901.81
2023-03-17T10:57:39.619Z,99899.13
2023-03-17T11:01:03.030Z,99907.22
2023-03-17T11:04:26.488Z,99906.22
2023-03-17T11:07:35.358Z,99907.06
2023-03-17T11:10:39.547Z,99896.22
2023-03-17T11:13:41.131Z,99891.84
2023-03-17T11:16:57.693Z,99885.25
2023-03-17T11:20:21.011Z,99882.53
2023-03-17T11:23:57.876Z,99878.16
2023-03-17T11:27:38.120Z,99870.03
2023-03-17T11:31:15.419Z,99870.69
2023-03-17T11:34:27.263Z,99863.59
2023-03-17T11:37:59.278Z,99861.72
2023-03-17T11:41:00.712Z,99846.50
2023-03-17T11:44:18.345Z,99842.75
2023-03-17T11:47:31.776Z,99833.81
2023-03-17T11:50:44.642Z,99834.50
2023-03-17T11:54:15.794Z,99844.63
2023-03-17T11:57:23.012Z,99849.91
2023-03-17T12:00:30.719Z,99833.66
2023-03-17T12:03:54.222Z,99837.03
2023-03-17T12:07:28.626Z,99840.75
2023-03-17T12:10:42.009Z,99828.22
2023-03-17T12:14:19.690Z,99820.78
2023-03-17T12:17:30.250Z,99812.00
2023-03-17T12:20:45.255Z,99805.69
2023-03-17T12:23:48.040Z,99803.00
2023-03-17T12:27:00.460Z,99804.56
2023-03-17T12:30:07.997Z,99811.69
2023-03-17T12:33:43.782Z,99805.25
2023-03-17T12:36:45.430Z,99807.09
2023-03-17T12:39:53.047Z,99804.41
2023-03-17T12:43:13.891Z,99802.38
2023-03-17T12:46:49.221Z,99798.00
2023-03-17T12:49:53.785Z,99802.53
2023-03-17T12:53:14.280Z,99801.53
2023-03-17T12:56:31.529Z,99805.09
2023-03-17T12:59:33.985Z,99813.38
2023-03-17T13:02:38.362Z,99804.25
2023-03-17T13:05:46.511Z,99806.75
2023-03-17T13:08:51.813Z,99791.38
2023-03-17T13:11:53.858Z,99786.13
2023-03-17T13:14:58.522Z,99790.53
2023-03-17T13:18:12.207Z,99779.53
2023-03-17T13:21:17.202Z,99778.69
2023-03-17T13:24:23.125Z,99786.63
2023-03-17T13:27:30.852Z,99785.78
2023-03-17T13:30:35.468Z,99782.25
2023-03-17T13:33:44.504Z,99779.53
2023-03-17T13:37:01.588Z,99775.97
2023-03-17T13:40:21.382Z,99772.44
2023-03-17T13:44:07.922Z,99769.88
2023-03-17T13:47:35.033Z,99760.09
2023-03-17T13:50:40.013Z,99758.22
2023-03-17T13:53:47.672Z,99756.34
2023-03-17T13:56:52.760Z,99755.50
2023-03-17T14:00:20.959Z,99750.94
2023-03-17T14:03:47.424Z,99752.59
2023-03-17T14:06:53.158Z,99744.69
2023-03-17T14:10:04.047Z,99750.94
2023-03-17T14:13:23.297Z,99751.09
2023-03-17T14:16:30.142Z,99746.34
2023-03-17T14:19:32.204Z,99749.06
2023-03-17T14:22:42.020Z,99736.38
2023-03-17T14:25:45.618Z,99743.66
2023-03-17T14:28:47.989Z,99733.66
2023-03-17T14:31:58.849Z,99731.81
2023-03-17T14:35:00.391Z,99723.03
2023-03-17T14:38:02.628Z,99734.69
2023-03-17T14:41:16.429Z,99727.25
2023-03-17T14:44:17.919Z,99723.69
2023-03-17T14:47:23.181Z,99723.50
2023-03-17T14:50:32.106Z,99730.63
2023-03-17T14:53:36.110Z,99726.06
2023-03-17T14:56:41.318Z,99724.19
2023-03-17T14:59:58.082Z,99716.75
2023-03-17T15:03:03.417Z,99717.44
2023-03-17T15:06:50.976Z,99722.31
2023-03-17T15:10:02.150Z,99724.69
2023-03-17T15:13:06.188Z,99723.69
2023-03-17T15:16:16.965Z,99716.72
2023-03-17T15:19:41.381Z,99710.31
2023-03-17T15:22:55.827Z,99711.81
2023-03-17T15:25:57.390Z,99717.25
2023-03-17T15:29:00.482Z,99719.59
2023-03-17T15:32:11.056Z,99713.00
2023-03-17T15:35:14.147Z,99713.00
2023-03-17T15:38:16.224Z,99702.16
2023-03-17T15:41:17.740Z,99707.22
2023-03-17T15:44:19.244Z,99703.50
2023-03-17T15:47:25.081Z,99708.59
2023-03-17T15:50:30.329Z,99703.66
2023-03-17T15:53:32.239Z,99706.00
2023-03-17T15:56:34.466Z,99701.28
2023-03-17T15:59:36.064Z,99697.22
2023-03-17T16:02:38.418Z,99693.31
2023-03-17T16:05:40.047Z,99697.34
2023-03-17T16:08:41.676Z,99697.84
2023-03-17T16:11:43.610Z,99701.88
2023-03-17T16:14:45.592Z,99696.09
2023-03-17T16:17:48.538Z,99693.56
2023-03-17T16:20:52.103Z,99696.75
2023-03-17T16:23:54.311Z,99695.53
2023-03-17T16:26:55.894Z,99706.06
2023-03-17T16:29:57.386Z,99692.16
2023-03-17T16:33:02.667Z,99694.34
2023-03-17T16:36:04.397Z,99692.28
2023-03-17T16:39:06.516Z,99686.69
2023-03-17T16:42:24.082Z,99697.38
2023-03-17T16:45:28.737Z,99689.38
2023-03-17T16:48:31.116Z,99688.56
2023-03-17T16:51:32.677Z,99689.75
2023-03-17T16:54:34.209Z,99688.91
2023-03-17T16:57:37.709Z,99694.34
2023-03-17T17:00:39.358Z,99690.94
2023-03-17T17:03:41.085Z,99693.00
2023-03-17T17:06:42.578Z,99681.31
2023-03-17T17:09:44.197Z,99691.47
2023-03-17T17:12:46.579Z,99687.09
2023-03-17T17:15:48.391Z,99681.81
2023-03-17T17:18:50.100Z,99694.53
2023-03-17T17:21:51.566Z,99705.56
2023-03-17T17:24:53.062Z,99702.84
2023-03-17T17:27:56.377Z,99699.28
2023-03-17T17:30:59.595Z,99705.75
2023-03-17T17:34:01.242Z,99716.75
2023-03-17T17:37:02.735Z,99717.78
2023-03-17T17:40:05.849Z,99726.75
2023-03-17T17:43:09.388Z,99730.47
2023-03-17T17:46:22.754Z,99740.31
2023-03-17T17:49:24.374Z,99731.50
2023-03-17T17:52:25.943Z,99742.34
2023-03-17T17:55:27.426Z,99730.66
2023-03-17T17:58:29.079Z,99729.81
2023-03-17T18:01:30.578Z,99732.34
2023-03-17T18:04:32.156Z,99720.50
2023-03-17T18:07:33.724Z,99723.00
2023-03-17T18:10:35.319Z,99704.88
2023-03-17T18:13:38.877Z,99695.75
2023-03-17T18:16:40.808Z,99702.00
2023-03-17T18:19:42.634Z,99701.16
2023-03-17T18:22:44.440Z,99705.56
2023-03-17T18:25:46.698Z,99712.50
2023-03-17T18:28:49.208Z,99692.31
2023-03-17T18:31:54.070Z,99705.88
2023-03-17T18:34:59.408Z,99706.72
2023-03-17T18:38:01.434Z,99701.13
2023-03-17T18:41:04.297Z,99688.25
2023-03-17T18:44:07.395Z,99693.31
2023-03-17T18:47:08.928Z,99693.31
2023-03-17T18:50:12.691Z,99705.66
2023-03-17T18:53:14.177Z,99696.50
2023-03-17T18:56:15.906Z,99700.91
2023-03-17T18:59:17.454Z,99700.72
2023-03-17T19:02:19.079Z,99705.13
2023-03-17T19:05:20.838Z,99685.13
2023-03-17T19:08:22.531Z,99692.25
2023-03-17T19:11:24.508Z,99692.09
2023-03-17T19:14:26.130Z,99682.94
2023-03-17T19:17:28.243Z,99678.38
2023-03-17T19:20:30.248Z,99678.38
2023-03-17T19:23:33.436Z,99671.91
2023-03-17T19:26:35.670Z,99668.19
2023-03-17T19:29:37.184Z,99670.91
2023-03-17T19:32:38.837Z,99661.06
2023-03-17T19:35:43.187Z,99669.88
2023-03-17T19:38:44.742Z,99684.47
2023-03-17T19:41:48.360Z,99697.81
2023-03-17T19:44:49.852Z,99687.81
2023-03-17T19:47:51.399Z,99683.44
2023-03-17T19:50:53.111Z,99692.41
2023-03-17T19:53:55.713Z,99685.09
2023-03-17T19:56:57.489Z,99676.97
2023-03-17T19:59:59.004Z,99681.56
2023-03-17T20:03:00.533Z,99685.78
2023-03-17T20:06:05.943Z,99702.72
2023-03-17T20:09:08.866Z,99705.06
2023-03-17T20:12:10.380Z,99686.94
2023-03-17T20:15:13.862Z,99687.59
2023-03-17T20:18:15.520Z,99682.16
2023-03-17T20:21:16.977Z,99693.69
2023-03-17T20:24:19.038Z,99690.81
2023-03-17T20:27:20.653Z,99690.63
2023-03-17T20:30:22.506Z,99692.31
2023-03-17T20:33:24.360Z,99692.97
2023-03-17T20:36:25.932Z,99715.34
2023-03-17T20:39:27.755Z,99736.88
2023-03-17T20:42:29.309Z,99732.28
2023-03-17T20:45:31.077Z,99731.09
2023-03-17T20:48:32.923Z,99742.97
2023-03-17T20:51:34.835Z,99733.81
2023-03-17T20:54:36.297Z,99725.66
2023-03-17T20:57:37.953Z,99729.06
2023-03-17T21:00:39.452Z,99730.72
2023-03-17T21:03:42.340Z,99741.41
2023-03-17T21:06:43.986Z,99741.41
2023-03-17T21:09:46.636Z,99741.59
2023-03-17T21:12:48.223Z,99739.06
2023-03-17T21:15:49.828Z,99743.63
2023-03-17T21:18:51.919Z,99743.81
2023-03-17T21:21:53.766Z,99747.38
2023-03-17T21:24:55.387Z,99747.53
2023-03-17T21:27:56.879Z,99736.88
2023-03-17T21:30:58.378Z,99734.16
2023-03-17T21:33:59.866Z,99735.00
2023-03-17T21:37:01.633Z,99745.03
2023-03-17T21:40:05.038Z,99748.56
2023-03-17T21:43:06.549Z,99758.59
2023-03-17T21:46:08.116Z,99755.88
2023-03-17T21:49:10.243Z,99757.56
2023-03-17T21:52:12.673Z,99751.97
2023-03-17T21:55:15.529Z,99741.94
2023-03-17T21:58:17.016Z,99753.47
2023-03-17T22:01:21.624Z,99755.81
2023-03-17T22:04:23.838Z,99763.97
2023-03-17T22:07:25.972Z,99758.53
2023-03-17T22:10:27.984Z,99759.38
2023-03-17T22:13:29.475Z,99766.50
2023-03-17T22:16:31.098Z,99764.63
2023-03-17T22:19:32.832Z,99765.47
2023-03-17T22:22:35.631Z,99766.31
2023-03-17T22:25:37.526Z,99766.31
2023-03-17T22:28:39.634Z,99765.31
2023-03-17T22:31:41.909Z,99768.88
2023-03-17T22:34:43.618Z,99765.31
2023-03-17T22:37:45.121Z,99762.59
2023-03-17T22:40:46.716Z,99772.41
2023-03-17T22:43:48.378Z,99786.81
2023-03-17T22:46:50.018Z,99787.03
2023-03-17T22:49:51.470Z,99791.41
2023-03-17T22:52:53.017Z,99791.41
2023-03-17T22:55:54.798Z,99792.44
2023-03-17T22:58:56.647Z,99788.88
2023-03-17T23:01:58.558Z,99787.88
2023-03-17T23:05:00.194Z,99788.88
2023-03-17T23:08:01.827Z,99781.59
2023-03-17T23:11:10.551Z,99774.28
2023-03-17T23:14:13.027Z,99771.75
2023-03-17T23:17:14.650Z,99782.59
2023-03-17T23:20:16.740Z,99770.06
2023-03-17T23:23:18.203Z,99775.50
2023-03-17T23:26:19.830Z,99780.09
2023-03-17T23:29:21.372Z,99786.50
2023-03-17T23:32:23.550Z,99786.34
2023-03-17T23:35:25.764Z,99796.38
2023-03-17T23:38:27.617Z,99784.00
2023-03-17T23:41:29.101Z,99793.13
2023-03-17T23:44:30.813Z,99804.66
2023-03-17T23:47:32.361Z,99794.84
2023-03-17T23:50:34.353Z,99793.97
2023-03-17T23:53:35.815Z,99801.28
2023-03-17T23:56:37.284Z,99795.00
2023-03-17T23:59:39.055Z,99788.75
